sensor_id;sensor_type;location;lat;lon;timestamp;P1;durP1;ratioP1;P2;durP2;ratioP2
54683;SDS011;40582;53.100;6.686;2022-08-19T00:00:13;8.15;;;5.50;;
54683;SDS011;40582;53.100;6.686;2022-08-19T00:02:40;12.57;;;6.80;;
54683;SDS011;40582;53.100;6.686;2022-08-19T00:05:06;10.25;;;5.68;;
54683;SDS011;40582;53.100;6.686;2022-08-19T00:07:33;6.30;;;5.53;;
54683;SDS011;40582;53.100;6.686;2022-08-19T00:09:59;11.57;;;5.55;;
54683;SDS011;40582;53.100;6.686;2022-08-19T00:12:24;6.53;;;5.10;;
54683;SDS011;40582;53.100;6.686;2022-08-19T00:14:50;6.70;;;4.80;;
54683;SDS011;40582;53.100;6.686;2022-08-19T00:17:16;7.22;;;4.60;;
54683;SDS011;40582;53.100;6.686;2022-08-19T00:19:41;8.85;;;5.35;;
54683;SDS011;40582;53.100;6.686;2022-08-19T00:22:07;7.18;;;5.85;;
54683;SDS011;40582;53.100;6.686;2022-08-19T00:24:33;8.27;;;6.05;;
54683;SDS011;40582;53.100;6.686;2022-08-19T00:27:00;6.78;;;5.95;;
54683;SDS011;40582;53.100;6.686;2022-08-19T00:29:27;6.68;;;5.53;;
54683;SDS011;40582;53.100;6.686;2022-08-19T00:31:53;7.88;;;5.88;;
54683;SDS011;40582;53.100;6.686;2022-08-19T00:34:20;9.32;;;7.40;;
54683;SDS011;40582;53.100;6.686;2022-08-19T00:36:47;11.52;;;6.72;;
54683;SDS011;40582;53.100;6.686;2022-08-19T00:39:17;7.50;;;5.95;;
54683;SDS011;40582;53.100;6.686;2022-08-19T00:41:43;8.93;;;6.15;;
54683;SDS011;40582;53.100;6.686;2022-08-19T00:44:17;13.77;;;7.07;;
54683;SDS011;40582;53.100;6.686;2022-08-19T00:46:50;23.67;;;7.25;;
54683;SDS011;40582;53.100;6.686;2022-08-19T00:49:20;8.80;;;6.40;;
54683;SDS011;40582;53.100;6.686;2022-08-19T00:51:53;9.27;;;7.68;;
54683;SDS011;40582;53.100;6.686;2022-08-19T00:54:23;9.02;;;7.30;;
54683;SDS011;40582;53.100;6.686;2022-08-19T00:56:49;9.85;;;7.63;;
54683;SDS011;40582;53.100;6.686;2022-08-19T00:59:16;11.45;;;8.85;;
54683;SDS011;40582;53.100;6.686;2022-08-19T01:01:43;10.43;;;9.18;;
54683;SDS011;40582;53.100;6.686;2022-08-19T01:04:10;10.60;;;9.50;;
54683;SDS011;40582;53.100;6.686;2022-08-19T01:06:36;8.98;;;8.07;;
54683;SDS011;40582;53.100;6.686;2022-08-19T01:09:04;14.68;;;8.82;;
54683;SDS011;40582;53.100;6.686;2022-08-19T01:11:30;10.32;;;8.15;;
54683;SDS011;40582;53.100;6.686;2022-08-19T01:13:58;10.82;;;9.02;;
54683;SDS011;40582;53.100;6.686;2022-08-19T01:16:25;8.52;;;7.70;;
54683;SDS011;40582;53.100;6.686;2022-08-19T01:18:54;8.68;;;7.85;;
54683;SDS011;40582;53.100;6.686;2022-08-19T01:23:57;9.85;;;7.80;;
54683;SDS011;40582;53.100;6.686;2022-08-19T01:26:24;12.80;;;7.47;;
54683;SDS011;40582;53.100;6.686;2022-08-19T01:28:52;8.60;;;7.70;;
54683;SDS011;40582;53.100;6.686;2022-08-19T01:31:21;10.15;;;7.40;;
54683;SDS011;40582;53.100;6.686;2022-08-19T01:33:49;9.20;;;7.43;;
54683;SDS011;40582;53.100;6.686;2022-08-19T01:38:56;7.97;;;7.18;;
54683;SDS011;40582;53.100;6.686;2022-08-19T01:41:23;11.07;;;8.48;;
54683;SDS011;40582;53.100;6.686;2022-08-19T01:43:50;11.63;;;8.70;;
54683;SDS011;40582;53.100;6.686;2022-08-19T01:46:17;12.50;;;9.75;;
54683;SDS011;40582;53.100;6.686;2022-08-19T01:48:43;12.63;;;9.45;;
54683;SDS011;40582;53.100;6.686;2022-08-19T01:51:10;12.23;;;10.25;;
54683;SDS011;40582;53.100;6.686;2022-08-19T01:53:37;17.90;;;11.05;;
54683;SDS011;40582;53.100;6.686;2022-08-19T01:56:03;11.90;;;10.73;;
54683;SDS011;40582;53.100;6.686;2022-08-19T01:58:32;13.88;;;10.98;;
54683;SDS011;40582;53.100;6.686;2022-08-19T02:01:04;12.52;;;10.77;;
54683;SDS011;40582;53.100;6.686;2022-08-19T02:03:30;12.93;;;10.50;;
54683;SDS011;40582;53.100;6.686;2022-08-19T02:05:57;13.95;;;11.07;;
54683;SDS011;40582;53.100;6.686;2022-08-19T02:08:26;14.43;;;10.15;;
54683;SDS011;40582;53.100;6.686;2022-08-19T02:10:52;14.00;;;10.15;;
54683;SDS011;40582;53.100;6.686;2022-08-19T02:13:18;12.88;;;9.38;;
54683;SDS011;40582;53.100;6.686;2022-08-19T02:15:45;11.93;;;9.85;;
54683;SDS011;40582;53.100;6.686;2022-08-19T02:18:10;9.90;;;8.90;;
54683;SDS011;40582;53.100;6.686;2022-08-19T02:20:37;10.63;;;9.43;;
54683;SDS011;40582;53.100;6.686;2022-08-19T02:23:04;10.85;;;9.75;;
54683;SDS011;40582;53.100;6.686;2022-08-19T02:25:30;15.25;;;9.30;;
54683;SDS011;40582;53.100;6.686;2022-08-19T02:27:56;11.27;;;9.70;;
54683;SDS011;40582;53.100;6.686;2022-08-19T02:30:22;14.88;;;10.32;;
54683;SDS011;40582;53.100;6.686;2022-08-19T02:32:49;11.77;;;9.90;;
54683;SDS011;40582;53.100;6.686;2022-08-19T02:35:16;12.38;;;9.98;;
54683;SDS011;40582;53.100;6.686;2022-08-19T02:37:43;11.45;;;9.32;;
54683;SDS011;40582;53.100;6.686;2022-08-19T02:40:28;15.85;;;9.80;;
54683;SDS011;40582;53.100;6.686;2022-08-19T02:42:54;11.20;;;8.98;;
54683;SDS011;40582;53.100;6.686;2022-08-19T02:45:20;12.57;;;9.00;;
54683;SDS011;40582;53.100;6.686;2022-08-19T02:47:47;15.02;;;9.32;;
54683;SDS011;40582;53.100;6.686;2022-08-19T02:50:12;10.88;;;9.00;;
54683;SDS011;40582;53.100;6.686;2022-08-19T02:52:39;10.20;;;8.77;;
54683;SDS011;40582;53.100;6.686;2022-08-19T02:55:05;11.27;;;8.23;;
54683;SDS011;40582;53.100;6.686;2022-08-19T02:57:31;10.85;;;9.05;;
54683;SDS011;40582;53.100;6.686;2022-08-19T02:59:57;10.43;;;8.38;;
54683;SDS011;40582;53.100;6.686;2022-08-19T03:02:23;10.23;;;9.13;;
54683;SDS011;40582;53.100;6.686;2022-08-19T03:04:49;11.75;;;9.15;;
54683;SDS011;40582;53.100;6.686;2022-08-19T03:07:16;10.65;;;8.30;;
54683;SDS011;40582;53.100;6.686;2022-08-19T03:09:43;12.65;;;8.32;;
54683;SDS011;40582;53.100;6.686;2022-08-19T03:12:09;13.02;;;7.32;;
54683;SDS011;40582;53.100;6.686;2022-08-19T03:14:36;9.75;;;7.75;;
54683;SDS011;40582;53.100;6.686;2022-08-19T03:17:02;11.13;;;7.78;;
54683;SDS011;40582;53.100;6.686;2022-08-19T03:19:29;7.90;;;7.03;;
54683;SDS011;40582;53.100;6.686;2022-08-19T03:21:56;10.55;;;7.03;;
54683;SDS011;40582;53.100;6.686;2022-08-19T03:24:23;8.23;;;6.65;;
54683;SDS011;40582;53.100;6.686;2022-08-19T03:26:53;9.00;;;6.82;;
54683;SDS011;40582;53.100;6.686;2022-08-19T03:29:22;7.35;;;6.63;;
54683;SDS011;40582;53.100;6.686;2022-08-19T03:31:49;7.40;;;6.63;;
54683;SDS011;40582;53.100;6.686;2022-08-19T03:34:26;8.50;;;7.22;;
54683;SDS011;40582;53.100;6.686;2022-08-19T03:36:55;11.63;;;6.57;;
54683;SDS011;40582;53.100;6.686;2022-08-19T03:39:23;8.00;;;6.85;;
54683;SDS011;40582;53.100;6.686;2022-08-19T03:41:50;8.45;;;7.53;;
54683;SDS011;40582;53.100;6.686;2022-08-19T03:44:18;8.60;;;7.70;;
54683;SDS011;40582;53.100;6.686;2022-08-19T03:46:46;9.35;;;7.35;;
54683;SDS011;40582;53.100;6.686;2022-08-19T03:49:14;10.05;;;8.45;;
54683;SDS011;40582;53.100;6.686;2022-08-19T03:51:41;14.60;;;8.02;;
54683;SDS011;40582;53.100;6.686;2022-08-19T03:54:08;9.38;;;7.70;;
54683;SDS011;40582;53.100;6.686;2022-08-19T03:56:36;9.93;;;7.70;;
54683;SDS011;40582;53.100;6.686;2022-08-19T03:59:05;9.90;;;7.97;;
54683;SDS011;40582;53.100;6.686;2022-08-19T04:01:32;10.50;;;8.48;;
54683;SDS011;40582;53.100;6.686;2022-08-19T04:03:58;12.98;;;10.20;;
54683;SDS011;40582;53.100;6.686;2022-08-19T04:06:26;11.98;;;9.52;;
54683;SDS011;40582;53.100;6.686;2022-08-19T04:09:01;12.85;;;10.43;;
54683;SDS011;40582;53.100;6.686;2022-08-19T04:11:40;14.75;;;10.40;;
54683;SDS011;40582;53.100;6.686;2022-08-19T04:14:20;11.77;;;9.60;;
54683;SDS011;40582;53.100;6.686;2022-08-19T04:16:48;12.50;;;9.68;;
54683;SDS011;40582;53.100;6.686;2022-08-19T04:19:15;12.38;;;10.05;;
54683;SDS011;40582;53.100;6.686;2022-08-19T04:21:46;11.13;;;9.93;;
54683;SDS011;40582;53.100;6.686;2022-08-19T04:24:13;10.57;;;9.05;;
54683;SDS011;40582;53.100;6.686;2022-08-19T04:26:40;9.50;;;8.52;;
54683;SDS011;40582;53.100;6.686;2022-08-19T04:29:07;15.50;;;9.27;;
54683;SDS011;40582;53.100;6.686;2022-08-19T04:31:35;12.80;;;9.90;;
54683;SDS011;40582;53.100;6.686;2022-08-19T04:34:01;11.95;;;8.68;;
54683;SDS011;40582;53.100;6.686;2022-08-19T04:36:30;9.77;;;8.52;;
54683;SDS011;40582;53.100;6.686;2022-08-19T04:38:59;10.93;;;7.53;;
54683;SDS011;40582;53.100;6.686;2022-08-19T04:41:26;9.10;;;7.60;;
54683;SDS011;40582;53.100;6.686;2022-08-19T04:44:12;7.43;;;6.63;;
54683;SDS011;40582;53.100;6.686;2022-08-19T04:46:38;10.35;;;6.78;;
54683;SDS011;40582;53.100;6.686;2022-08-19T04:49:05;12.82;;;7.70;;
54683;SDS011;40582;53.100;6.686;2022-08-19T04:51:32;8.57;;;6.93;;
54683;SDS011;40582;53.100;6.686;2022-08-19T04:53:58;11.18;;;7.10;;
54683;SDS011;40582;53.100;6.686;2022-08-19T04:56:26;11.27;;;9.23;;
54683;SDS011;40582;53.100;6.686;2022-08-19T04:58:53;13.70;;;9.13;;
54683;SDS011;40582;53.100;6.686;2022-08-19T05:01:21;11.13;;;10.02;;
54683;SDS011;40582;53.100;6.686;2022-08-19T05:03:53;14.52;;;10.35;;
54683;SDS011;40582;53.100;6.686;2022-08-19T05:06:20;11.55;;;10.13;;
54683;SDS011;40582;53.100;6.686;2022-08-19T05:08:46;12.50;;;11.05;;
54683;SDS011;40582;53.100;6.686;2022-08-19T05:11:14;12.15;;;10.25;;
54683;SDS011;40582;53.100;6.686;2022-08-19T05:13:42;16.77;;;11.93;;
54683;SDS011;40582;53.100;6.686;2022-08-19T05:16:10;15.93;;;12.98;;
54683;SDS011;40582;53.100;6.686;2022-08-19T05:18:37;15.00;;;13.00;;
54683;SDS011;40582;53.100;6.686;2022-08-19T05:24:07;18.08;;;13.45;;
54683;SDS011;40582;53.100;6.686;2022-08-19T05:26:37;14.57;;;12.73;;
54683;SDS011;40582;53.100;6.686;2022-08-19T05:29:04;15.52;;;12.02;;
54683;SDS011;40582;53.100;6.686;2022-08-19T05:31:32;19.50;;;14.63;;
54683;SDS011;40582;53.100;6.686;2022-08-19T05:33:58;20.27;;;14.50;;
54683;SDS011;40582;53.100;6.686;2022-08-19T05:36:28;18.77;;;13.90;;
54683;SDS011;40582;53.100;6.686;2022-08-19T05:39:04;19.65;;;13.82;;
54683;SDS011;40582;53.100;6.686;2022-08-19T05:41:35;18.60;;;13.38;;
54683;SDS011;40582;53.100;6.686;2022-08-19T05:44:01;15.98;;;12.77;;
54683;SDS011;40582;53.100;6.686;2022-08-19T05:46:31;16.20;;;12.50;;
54683;SDS011;40582;53.100;6.686;2022-08-19T05:48:57;16.95;;;11.57;;
54683;SDS011;40582;53.100;6.686;2022-08-19T05:51:24;15.20;;;12.05;;
54683;SDS011;40582;53.100;6.686;2022-08-19T05:53:50;20.35;;;13.15;;
54683;SDS011;40582;53.100;6.686;2022-08-19T05:56:16;13.77;;;11.05;;
54683;SDS011;40582;53.100;6.686;2022-08-19T05:58:44;17.00;;;12.77;;
54683;SDS011;40582;53.100;6.686;2022-08-19T06:01:19;15.98;;;11.43;;
54683;SDS011;40582;53.100;6.686;2022-08-19T06:03:46;17.13;;;10.63;;
54683;SDS011;40582;53.100;6.686;2022-08-19T06:06:14;11.90;;;9.02;;
54683;SDS011;40582;53.100;6.686;2022-08-19T06:08:40;13.05;;;9.32;;
54683;SDS011;40582;53.100;6.686;2022-08-19T06:11:18;10.82;;;9.10;;
54683;SDS011;40582;53.100;6.686;2022-08-19T06:13:50;11.68;;;9.88;;
54683;SDS011;40582;53.100;6.686;2022-08-19T06:16:18;15.18;;;10.30;;
54683;SDS011;40582;53.100;6.686;2022-08-19T06:18:51;11.65;;;10.45;;
54683;SDS011;40582;53.100;6.686;2022-08-19T06:21:19;15.13;;;10.57;;
54683;SDS011;40582;53.100;6.686;2022-08-19T06:23:46;14.18;;;9.45;;
54683;SDS011;40582;53.100;6.686;2022-08-19T06:26:13;13.73;;;9.93;;
54683;SDS011;40582;53.100;6.686;2022-08-19T06:28:40;13.10;;;9.82;;
54683;SDS011;40582;53.100;6.686;2022-08-19T06:31:08;11.52;;;10.00;;
54683;SDS011;40582;53.100;6.686;2022-08-19T06:33:34;10.60;;;9.48;;
54683;SDS011;40582;53.100;6.686;2022-08-19T06:36:01;16.13;;;10.80;;
54683;SDS011;40582;53.100;6.686;2022-08-19T06:38:26;12.68;;;10.48;;
54683;SDS011;40582;53.100;6.686;2022-08-19T06:41:00;16.23;;;10.23;;
54683;SDS011;40582;53.100;6.686;2022-08-19T06:43:28;12.85;;;9.48;;
54683;SDS011;40582;53.100;6.686;2022-08-19T06:45:54;14.68;;;10.48;;
54683;SDS011;40582;53.100;6.686;2022-08-19T06:48:20;19.83;;;11.00;;
54683;SDS011;40582;53.100;6.686;2022-08-19T06:50:46;11.93;;;9.80;;
54683;SDS011;40582;53.100;6.686;2022-08-19T06:53:13;13.10;;;9.02;;
54683;SDS011;40582;53.100;6.686;2022-08-19T06:55:39;19.45;;;9.93;;
54683;SDS011;40582;53.100;6.686;2022-08-19T06:58:05;14.85;;;9.32;;
54683;SDS011;40582;53.100;6.686;2022-08-19T07:00:31;14.50;;;9.13;;
54683;SDS011;40582;53.100;6.686;2022-08-19T07:02:57;14.30;;;9.25;;
54683;SDS011;40582;53.100;6.686;2022-08-19T07:05:23;13.35;;;8.88;;
54683;SDS011;40582;53.100;6.686;2022-08-19T07:07:49;12.68;;;8.88;;
54683;SDS011;40582;53.100;6.686;2022-08-19T07:10:15;12.25;;;9.05;;
54683;SDS011;40582;53.100;6.686;2022-08-19T07:12:40;12.75;;;8.48;;
54683;SDS011;40582;53.100;6.686;2022-08-19T07:15:07;10.55;;;8.05;;
54683;SDS011;40582;53.100;6.686;2022-08-19T07:17:34;9.57;;;7.65;;
54683;SDS011;40582;53.100;6.686;2022-08-19T07:20:02;10.52;;;7.90;;
54683;SDS011;40582;53.100;6.686;2022-08-19T07:22:28;10.38;;;7.65;;
54683;SDS011;40582;53.100;6.686;2022-08-19T07:24:54;11.02;;;8.32;;
54683;SDS011;40582;53.100;6.686;2022-08-19T07:27:20;12.27;;;8.15;;
54683;SDS011;40582;53.100;6.686;2022-08-19T07:29:46;11.30;;;7.72;;
54683;SDS011;40582;53.100;6.686;2022-08-19T07:32:12;11.70;;;7.63;;
54683;SDS011;40582;53.100;6.686;2022-08-19T07:34:38;11.75;;;7.60;;
54683;SDS011;40582;53.100;6.686;2022-08-19T07:37:04;15.60;;;7.57;;
54683;SDS011;40582;53.100;6.686;2022-08-19T07:39:31;14.30;;;7.65;;
54683;SDS011;40582;53.100;6.686;2022-08-19T07:42:00;11.07;;;7.43;;
54683;SDS011;40582;53.100;6.686;2022-08-19T07:44:28;8.68;;;6.55;;
54683;SDS011;40582;53.100;6.686;2022-08-19T07:46:55;10.32;;;7.03;;
54683;SDS011;40582;53.100;6.686;2022-08-19T07:49:22;9.93;;;6.90;;
54683;SDS011;40582;53.100;6.686;2022-08-19T07:51:50;9.63;;;7.07;;
54683;SDS011;40582;53.100;6.686;2022-08-19T07:54:21;10.23;;;7.18;;
54683;SDS011;40582;53.100;6.686;2022-08-19T07:56:49;9.60;;;7.13;;
54683;SDS011;40582;53.100;6.686;2022-08-19T07:59:16;9.20;;;7.20;;
54683;SDS011;40582;53.100;6.686;2022-08-19T08:01:43;11.95;;;6.50;;
54683;SDS011;40582;53.100;6.686;2022-08-19T08:04:09;10.90;;;7.20;;
54683;SDS011;40582;53.100;6.686;2022-08-19T08:06:53;10.85;;;6.90;;
54683;SDS011;40582;53.100;6.686;2022-08-19T08:09:38;9.80;;;6.78;;
54683;SDS011;40582;53.100;6.686;2022-08-19T08:12:07;12.10;;;7.55;;
54683;SDS011;40582;53.100;6.686;2022-08-19T08:14:45;10.13;;;6.43;;
54683;SDS011;40582;53.100;6.686;2022-08-19T08:17:15;8.90;;;7.47;;
54683;SDS011;40582;53.100;6.686;2022-08-19T08:19:42;11.10;;;8.10;;
54683;SDS011;40582;53.100;6.686;2022-08-19T08:22:10;11.88;;;7.45;;
54683;SDS011;40582;53.100;6.686;2022-08-19T08:24:55;7.55;;;6.63;;
54683;SDS011;40582;53.100;6.686;2022-08-19T08:27:23;9.80;;;6.35;;
54683;SDS011;40582;53.100;6.686;2022-08-19T08:29:49;9.50;;;6.10;;
54683;SDS011;40582;53.100;6.686;2022-08-19T08:32:15;8.65;;;5.82;;
54683;SDS011;40582;53.100;6.686;2022-08-19T08:34:41;7.57;;;4.97;;
54683;SDS011;40582;53.100;6.686;2022-08-19T08:37:07;7.65;;;5.30;;
54683;SDS011;40582;53.100;6.686;2022-08-19T08:39:33;11.80;;;5.97;;
54683;SDS011;40582;53.100;6.686;2022-08-19T08:43:01;9.63;;;5.10;;
54683;SDS011;40582;53.100;6.686;2022-08-19T08:45:12;6.75;;;4.82;;
54683;SDS011;40582;53.100;6.686;2022-08-19T08:47:41;8.32;;;5.65;;
54683;SDS011;40582;53.100;6.686;2022-08-19T08:53:03;10.38;;;5.68;;
54683;SDS011;40582;53.100;6.686;2022-08-19T08:55:30;8.75;;;6.38;;
54683;SDS011;40582;53.100;6.686;2022-08-19T08:58:10;9.13;;;6.00;;
54683;SDS011;40582;53.100;6.686;2022-08-19T09:00:49;8.48;;;6.00;;
54683;SDS011;40582;53.100;6.686;2022-08-19T09:14:08;7.00;;;5.22;;
54683;SDS011;40582;53.100;6.686;2022-08-19T09:16:56;6.68;;;5.28;;
54683;SDS011;40582;53.100;6.686;2022-08-19T09:19:22;7.95;;;5.57;;
54683;SDS011;40582;53.100;6.686;2022-08-19T09:21:48;8.30;;;4.72;;
54683;SDS011;40582;53.100;6.686;2022-08-19T09:24:15;9.13;;;4.50;;
54683;SDS011;40582;53.100;6.686;2022-08-19T09:26:41;6.40;;;4.50;;
54683;SDS011;40582;53.100;6.686;2022-08-19T09:29:08;6.95;;;4.22;;
54683;SDS011;40582;53.100;6.686;2022-08-19T09:31:34;15.80;;;4.63;;
54683;SDS011;40582;53.100;6.686;2022-08-19T09:34:00;6.63;;;3.80;;
54683;SDS011;40582;53.100;6.686;2022-08-19T09:36:29;6.50;;;3.90;;
54683;SDS011;40582;53.100;6.686;2022-08-19T09:38:58;6.68;;;4.50;;
54683;SDS011;40582;53.100;6.686;2022-08-19T09:41:25;11.65;;;4.35;;
54683;SDS011;40582;53.100;6.686;2022-08-19T09:43:52;8.02;;;4.88;;
54683;SDS011;40582;53.100;6.686;2022-08-19T09:46:23;5.90;;;3.80;;
54683;SDS011;40582;53.100;6.686;2022-08-19T09:48:52;8.55;;;3.70;;
54683;SDS011;40582;53.100;6.686;2022-08-19T09:51:23;11.25;;;4.45;;
54683;SDS011;40582;53.100;6.686;2022-08-19T09:53:51;16.05;;;4.78;;
54683;SDS011;40582;53.100;6.686;2022-08-19T09:56:19;7.22;;;3.67;;
54683;SDS011;40582;53.100;6.686;2022-08-19T09:58:46;7.63;;;4.28;;
54683;SDS011;40582;53.100;6.686;2022-08-19T10:01:20;5.57;;;4.22;;
54683;SDS011;40582;53.100;6.686;2022-08-19T10:03:49;6.10;;;4.78;;
54683;SDS011;40582;53.100;6.686;2022-08-19T10:06:17;6.35;;;4.63;;
54683;SDS011;40582;53.100;6.686;2022-08-19T10:08:44;5.68;;;5.07;;
54683;SDS011;40582;53.100;6.686;2022-08-19T10:11:11;5.20;;;4.20;;
54683;SDS011;40582;53.100;6.686;2022-08-19T10:13:37;5.88;;;4.28;;
54683;SDS011;40582;53.100;6.686;2022-08-19T10:16:08;6.78;;;4.68;;
54683;SDS011;40582;53.100;6.686;2022-08-19T10:18:36;6.93;;;4.45;;
54683;SDS011;40582;53.100;6.686;2022-08-19T10:21:17;8.75;;;5.38;;
54683;SDS011;40582;53.100;6.686;2022-08-19T10:23:48;7.80;;;5.35;;
54683;SDS011;40582;53.100;6.686;2022-08-19T10:26:17;7.38;;;5.53;;
54683;SDS011;40582;53.100;6.686;2022-08-19T10:28:45;9.63;;;5.50;;
54683;SDS011;40582;53.100;6.686;2022-08-19T10:31:15;8.43;;;6.03;;
54683;SDS011;40582;53.100;6.686;2022-08-19T10:33:44;11.32;;;4.85;;
54683;SDS011;40582;53.100;6.686;2022-08-19T10:36:13;8.27;;;4.72;;
54683;SDS011;40582;53.100;6.686;2022-08-19T10:38:45;10.40;;;6.53;;
54683;SDS011;40582;53.100;6.686;2022-08-19T10:43:39;5.13;;;4.32;;
54683;SDS011;40582;53.100;6.686;2022-08-19T10:46:06;6.60;;;4.60;;
54683;SDS011;40582;53.100;6.686;2022-08-19T10:48:33;8.15;;;5.20;;
54683;SDS011;40582;53.100;6.686;2022-08-19T10:50:59;7.78;;;5.20;;
54683;SDS011;40582;53.100;6.686;2022-08-19T10:53:44;8.52;;;4.88;;
54683;SDS011;40582;53.100;6.686;2022-08-19T10:56:10;12.55;;;6.10;;
54683;SDS011;40582;53.100;6.686;2022-08-19T10:58:54;6.10;;;5.18;;
54683;SDS011;40582;53.100;6.686;2022-08-19T11:01:21;9.82;;;5.95;;
54683;SDS011;40582;53.100;6.686;2022-08-19T11:03:47;7.95;;;4.72;;
54683;SDS011;40582;53.100;6.686;2022-08-19T11:06:13;10.27;;;5.25;;
54683;SDS011;40582;53.100;6.686;2022-08-19T11:08:38;9.80;;;5.90;;
54683;SDS011;40582;53.100;6.686;2022-08-19T11:11:05;11.35;;;6.50;;
54683;SDS011;40582;53.100;6.686;2022-08-19T11:13:34;6.68;;;5.97;;
54683;SDS011;40582;53.100;6.686;2022-08-19T11:18:29;9.18;;;5.65;;
54683;SDS011;40582;53.100;6.686;2022-08-19T11:21:04;9.07;;;4.75;;
54683;SDS011;40582;53.100;6.686;2022-08-19T11:24:01;8.68;;;4.63;;
54683;SDS011;40582;53.100;6.686;2022-08-19T11:26:30;6.22;;;5.00;;
54683;SDS011;40582;53.100;6.686;2022-08-19T11:28:56;7.35;;;4.82;;
54683;SDS011;40582;53.100;6.686;2022-08-19T11:31:27;8.88;;;5.35;;
54683;SDS011;40582;53.100;6.686;2022-08-19T11:33:56;10.07;;;6.80;;
54683;SDS011;40582;53.100;6.686;2022-08-19T11:36:24;7.95;;;6.53;;
54683;SDS011;40582;53.100;6.686;2022-08-19T11:38:51;7.32;;;5.10;;
54683;SDS011;40582;53.100;6.686;2022-08-19T11:41:17;12.10;;;5.68;;
54683;SDS011;40582;53.100;6.686;2022-08-19T11:43:44;8.70;;;7.15;;
54683;SDS011;40582;53.100;6.686;2022-08-19T11:46:12;8.15;;;5.50;;
54683;SDS011;40582;53.100;6.686;2022-08-19T11:48:39;7.47;;;6.10;;
54683;SDS011;40582;53.100;6.686;2022-08-19T11:51:08;10.85;;;6.28;;
54683;SDS011;40582;53.100;6.686;2022-08-19T11:53:35;12.15;;;7.50;;
54683;SDS011;40582;53.100;6.686;2022-08-19T11:56:02;10.48;;;6.85;;
54683;SDS011;40582;53.100;6.686;2022-08-19T11:58:29;7.05;;;6.32;;
54683;SDS011;40582;53.100;6.686;2022-08-19T12:00:54;9.15;;;6.70;;
54683;SDS011;40582;53.100;6.686;2022-08-19T12:03:20;11.13;;;6.10;;
54683;SDS011;40582;53.100;6.686;2022-08-19T12:05:47;9.90;;;5.63;;
54683;SDS011;40582;53.100;6.686;2022-08-19T12:08:13;5.93;;;5.05;;
54683;SDS011;40582;53.100;6.686;2022-08-19T12:10:40;7.97;;;5.70;;
54683;SDS011;40582;53.100;6.686;2022-08-19T12:13:10;6.00;;;5.07;;
54683;SDS011;40582;53.100;6.686;2022-08-19T12:15:40;8.00;;;5.40;;
54683;SDS011;40582;53.100;6.686;2022-08-19T12:18:06;6.93;;;5.88;;
54683;SDS011;40582;53.100;6.686;2022-08-19T12:20:37;11.63;;;7.13;;
54683;SDS011;40582;53.100;6.686;2022-08-19T12:23:05;12.95;;;7.55;;
54683;SDS011;40582;53.100;6.686;2022-08-19T12:25:31;12.32;;;6.55;;
54683;SDS011;40582;53.100;6.686;2022-08-19T12:27:58;11.50;;;6.57;;
54683;SDS011;40582;53.100;6.686;2022-08-19T12:30:24;9.10;;;7.38;;
54683;SDS011;40582;53.100;6.686;2022-08-19T12:32:50;11.15;;;6.90;;
54683;SDS011;40582;53.100;6.686;2022-08-19T12:35:16;10.52;;;7.43;;
54683;SDS011;40582;53.100;6.686;2022-08-19T12:37:45;9.77;;;6.57;;
54683;SDS011;40582;53.100;6.686;2022-08-19T12:40:11;10.45;;;5.90;;
54683;SDS011;40582;53.100;6.686;2022-08-19T12:42:38;9.52;;;5.95;;
54683;SDS011;40582;53.100;6.686;2022-08-19T12:45:09;7.78;;;6.25;;
54683;SDS011;40582;53.100;6.686;2022-08-19T12:47:35;7.15;;;5.95;;
54683;SDS011;40582;53.100;6.686;2022-08-19T12:50:01;9.30;;;7.05;;
54683;SDS011;40582;53.100;6.686;2022-08-19T12:52:27;10.27;;;6.82;;
54683;SDS011;40582;53.100;6.686;2022-08-19T12:54:55;9.00;;;6.22;;
54683;SDS011;40582;53.100;6.686;2022-08-19T12:57:25;10.23;;;5.80;;
54683;SDS011;40582;53.100;6.686;2022-08-19T12:59:58;8.75;;;4.78;;
54683;SDS011;40582;53.100;6.686;2022-08-19T13:02:25;6.47;;;4.43;;
54683;SDS011;40582;53.100;6.686;2022-08-19T13:04:51;4.57;;;4.13;;
54683;SDS011;40582;53.100;6.686;2022-08-19T13:07:17;8.13;;;4.47;;
54683;SDS011;40582;53.100;6.686;2022-08-19T13:09:42;10.70;;;5.07;;
54683;SDS011;40582;53.100;6.686;2022-08-19T13:12:08;6.95;;;4.13;;
54683;SDS011;40582;53.100;6.686;2022-08-19T13:14:37;8.80;;;4.03;;
54683;SDS011;40582;53.100;6.686;2022-08-19T13:17:05;7.45;;;4.53;;
54683;SDS011;40582;53.100;6.686;2022-08-19T13:19:31;5.38;;;4.10;;
54683;SDS011;40582;53.100;6.686;2022-08-19T13:21:57;7.80;;;4.28;;
54683;SDS011;40582;53.100;6.686;2022-08-19T13:24:23;8.82;;;4.60;;
54683;SDS011;40582;53.100;6.686;2022-08-19T13:26:50;11.07;;;5.20;;
54683;SDS011;40582;53.100;6.686;2022-08-19T13:29:15;11.88;;;4.88;;
54683;SDS011;40582;53.100;6.686;2022-08-19T13:32:00;10.13;;;5.22;;
54683;SDS011;40582;53.100;6.686;2022-08-19T13:34:44;4.97;;;4.40;;
54683;SDS011;40582;53.100;6.686;2022-08-19T13:37:11;10.27;;;5.05;;
54683;SDS011;40582;53.100;6.686;2022-08-19T13:39:37;6.82;;;4.60;;
54683;SDS011;40582;53.100;6.686;2022-08-19T13:42:03;13.70;;;5.63;;
54683;SDS011;40582;53.100;6.686;2022-08-19T13:44:29;13.18;;;6.90;;
54683;SDS011;40582;53.100;6.686;2022-08-19T13:47:05;12.25;;;6.38;;
54683;SDS011;40582;53.100;6.686;2022-08-19T13:49:32;12.23;;;6.63;;
54683;SDS011;40582;53.100;6.686;2022-08-19T13:51:58;11.95;;;7.25;;
54683;SDS011;40582;53.100;6.686;2022-08-19T13:54:24;9.27;;;7.32;;
54683;SDS011;40582;53.100;6.686;2022-08-19T13:56:50;13.23;;;9.60;;
54683;SDS011;40582;53.100;6.686;2022-08-19T13:59:15;15.90;;;10.40;;
54683;SDS011;40582;53.100;6.686;2022-08-19T14:01:42;17.15;;;10.10;;
54683;SDS011;40582;53.100;6.686;2022-08-19T14:04:08;22.65;;;11.18;;
54683;SDS011;40582;53.100;6.686;2022-08-19T14:06:34;19.05;;;11.25;;
54683;SDS011;40582;53.100;6.686;2022-08-19T14:09:00;23.55;;;11.75;;
54683;SDS011;40582;53.100;6.686;2022-08-19T14:11:27;22.20;;;12.20;;
54683;SDS011;40582;53.100;6.686;2022-08-19T14:13:53;20.52;;;11.65;;
54683;SDS011;40582;53.100;6.686;2022-08-19T14:16:19;22.52;;;13.10;;
54683;SDS011;40582;53.100;6.686;2022-08-19T14:18:46;25.15;;;12.85;;
54683;SDS011;40582;53.100;6.686;2022-08-19T14:21:16;19.75;;;12.35;;
54683;SDS011;40582;53.100;6.686;2022-08-19T14:23:45;18.00;;;10.90;;
54683;SDS011;40582;53.100;6.686;2022-08-19T14:26:11;23.75;;;11.18;;
54683;SDS011;40582;53.100;6.686;2022-08-19T14:28:39;17.08;;;10.73;;
54683;SDS011;40582;53.100;6.686;2022-08-19T14:31:07;17.52;;;9.88;;
54683;SDS011;40582;53.100;6.686;2022-08-19T14:33:36;15.02;;;9.63;;
54683;SDS011;40582;53.100;6.686;2022-08-19T14:36:02;16.65;;;10.25;;
54683;SDS011;40582;53.100;6.686;2022-08-19T14:38:29;15.27;;;8.75;;
54683;SDS011;40582;53.100;6.686;2022-08-19T14:41:05;16.52;;;10.80;;
54683;SDS011;40582;53.100;6.686;2022-08-19T14:43:43;17.15;;;9.57;;
54683;SDS011;40582;53.100;6.686;2022-08-19T14:46:14;22.42;;;10.32;;
54683;SDS011;40582;53.100;6.686;2022-08-19T14:48:41;17.15;;;10.13;;
54683;SDS011;40582;53.100;6.686;2022-08-19T14:51:07;15.75;;;10.20;;
54683;SDS011;40582;53.100;6.686;2022-08-19T14:53:33;17.58;;;10.27;;
54683;SDS011;40582;53.100;6.686;2022-08-19T14:55:59;22.40;;;10.98;;
54683;SDS011;40582;53.100;6.686;2022-08-19T14:58:26;20.67;;;12.48;;
54683;SDS011;40582;53.100;6.686;2022-08-19T15:00:51;17.05;;;11.18;;
54683;SDS011;40582;53.100;6.686;2022-08-19T15:03:17;18.77;;;11.90;;
54683;SDS011;40582;53.100;6.686;2022-08-19T15:05:43;20.35;;;12.40;;
54683;SDS011;40582;53.100;6.686;2022-08-19T15:08:08;29.63;;;12.00;;
54683;SDS011;40582;53.100;6.686;2022-08-19T15:10:35;20.05;;;12.02;;